createdAt,value
2023-03-26T00:00:31.990Z,6.51
2023-03-26T00:02:24.230Z,7.46
2023-03-26T00:03:58.791Z,6.96
2023-03-26T00:05:36.985Z,7.06
2023-03-26T00:07:10.637Z,6.77
2023-03-26T00:08:44.889Z,6.80
2023-03-26T00:10:18.549Z,6.78
2023-03-26T00:12:02.657Z,6.91
2023-03-26T00:13:35.937Z,7.60
2023-03-26T00:15:22.011Z,7.92
2023-03-26T00:18:51.738Z,7.64
2023-03-26T00:20:26.049Z,7.78
2023-03-26T00:22:11.377Z,7.85
2023-03-26T00:23:51.974Z,7.83
2023-03-26T00:25:28.581Z,7.90
2023-03-26T00:27:09.708Z,8.81
2023-03-26T00:28:34.053Z,8.11
2023-03-26T00:30:07.385Z,8.11
2023-03-26T00:31:49.615Z,9.15
2023-03-26T00:33:12.000Z,7.05
2023-03-26T00:34:57.236Z,7.04
2023-03-26T00:36:42.070Z,8.17
2023-03-26T00:38:17.648Z,7.05
2023-03-26T00:39:49.393Z,7.41
2023-03-26T00:41:36.514Z,7.39
2023-03-26T00:43:30.838Z,6.77
2023-03-26T00:45:05.269Z,7.04
2023-03-26T00:46:52.176Z,6.87
2023-03-26T00:48:44.382Z,7.61
2023-03-26T00:50:19.288Z,7.29
2023-03-26T00:52:05.254Z,6.46
2023-03-26T00:53:38.144Z,6.36
2023-03-26T00:55:23.842Z,6.89
2023-03-26T00:57:08.804Z,7.22
2023-03-26T00:58:32.946Z,7.41
2023-03-26T01:00:16.521Z,6.87
2023-03-26T01:01:52.317Z,6.34
2023-03-26T01:03:29.230Z,6.33
2023-03-26T01:05:02.856Z,6.35
2023-03-26T01:06:39.681Z,6.50
2023-03-26T01:08:09.381Z,7.00
2023-03-26T01:09:45.343Z,7.04
2023-03-26T01:11:39.648Z,7.20
2023-03-26T01:13:20.371Z,6.83
2023-03-26T01:14:53.826Z,5.86
2023-03-26T01:16:34.516Z,6.54
2023-03-26T01:18:09.441Z,6.11
2023-03-26T01:19:35.593Z,5.72
2023-03-26T01:21:21.130Z,6.02
2023-03-26T01:23:15.650Z,6.72
2023-03-26T01:25:00.279Z,6.82
2023-03-26T01:26:24.338Z,6.89
2023-03-26T01:28:18.670Z,6.18
2023-03-26T01:30:00.965Z,6.49
2023-03-26T01:31:41.656Z,5.89
2023-03-26T01:33:36.502Z,6.60
2023-03-26T01:35:12.567Z,7.04
2023-03-26T01:36:44.246Z,6.85
2023-03-26T01:38:13.433Z,6.79
2023-03-26T01:39:54.374Z,6.51
2023-03-26T01:41:28.283Z,5.88
2023-03-26T01:42:57.546Z,6.34
2023-03-26T01:44:31.269Z,5.68
2023-03-26T01:46:11.958Z,6.04
2023-03-26T01:47:41.781Z,6.30
2023-03-26T01:49:15.580Z,5.80
2023-03-26T01:51:00.659Z,5.64
2023-03-26T01:52:25.081Z,6.02
2023-03-26T01:53:48.633Z,7.39
2023-03-26T01:55:23.297Z,7.39
2023-03-26T01:57:09.973Z,6.26
2023-03-26T01:58:43.672Z,5.73
2023-03-26T02:00:28.534Z,7.60
2023-03-26T02:02:14.131Z,6.77
2023-03-26T02:04:08.642Z,6.58
2023-03-26T02:05:50.606Z,6.60
2023-03-26T02:07:32.774Z,6.45
2023-03-26T02:08:54.540Z,7.20
2023-03-26T02:10:24.273Z,5.90
2023-03-26T02:12:06.660Z,5.54
2023-03-26T02:13:40.270Z,5.57
2023-03-26T02:15:15.648Z,5.44
2023-03-26T02:16:56.436Z,5.49
2023-03-26T02:18:44.815Z,5.67
2023-03-26T02:20:38.703Z,5.33
2023-03-26T02:22:07.593Z,5.84
2023-03-26T02:24:02.874Z,5.66
2023-03-26T02:25:42.811Z,6.24
2023-03-26T02:27:29.981Z,5.76
2023-03-26T02:29:15.517Z,6.04
2023-03-26T02:30:56.882Z,6.40
2023-03-26T02:32:30.402Z,6.98
2023-03-26T02:34:06.560Z,6.03
2023-03-26T02:36:01.812Z,6.30
2023-03-26T02:37:56.655Z,6.31
2023-03-26T02:39:29.798Z,6.41
2023-03-26T02:41:17.962Z,6.15
2023-03-26T02:43:06.137Z,5.81
2023-03-26T02:44:47.335Z,6.01
2023-03-26T02:46:15.063Z,6.50
2023-03-26T02:48:15.844Z,5.87
2023-03-26T02:50:48.391Z,6.22
2023-03-26T02:52:49.377Z,5.90
2023-03-26T02:54:25.372Z,5.48
2023-03-26T02:56:24.886Z,5.50
2023-03-26T02:58:46.433Z,6.28
2023-03-26T03:00:26.271Z,5.49
2023-03-26T03:02:25.243Z,5.88
2023-03-26T03:04:10.766Z,6.49
2023-03-26T03:05:46.979Z,5.86
2023-03-26T03:07:26.273Z,6.45
2023-03-26T03:09:15.974Z,5.89
2023-03-26T03:11:22.119Z,5.47
2023-03-26T03:13:08.034Z,5.63
2023-03-26T03:14:41.274Z,5.96
2023-03-26T03:16:17.326Z,6.21
2023-03-26T03:17:50.790Z,5.82
2023-03-26T03:19:20.443Z,5.69
2023-03-26T03:21:06.646Z,5.98
2023-03-26T03:22:55.800Z,5.40
2023-03-26T03:24:49.717Z,5.39
2023-03-26T03:26:44.760Z,5.50
2023-03-26T03:28:23.470Z,5.36
2023-03-26T03:29:58.995Z,5.14
2023-03-26T03:31:52.651Z,5.53
2023-03-26T03:33:58.719Z,5.34
2023-03-26T03:35:42.025Z,5.76
2023-03-26T03:37:15.640Z,5.49
2023-03-26T03:39:13.440Z,5.38
2023-03-26T03:41:06.433Z,5.65
2023-03-26T03:43:00.265Z,5.01
2023-03-26T03:45:00.758Z,5.04
2023-03-26T03:47:00.866Z,5.30
2023-03-26T03:48:54.839Z,5.22
2023-03-26T03:50:43.807Z,5.06
2023-03-26T03:52:28.576Z,5.40
2023-03-26T03:54:14.627Z,5.04
2023-03-26T03:55:54.174Z,5.01
2023-03-26T03:57:34.093Z,5.21
2023-03-26T03:58:59.596Z,4.96
2023-03-26T04:00:41.608Z,4.84
2023-03-26T04:02:52.894Z,5.32
2023-03-26T04:04:28.952Z,5.63
2023-03-26T04:06:19.200Z,5.41
2023-03-26T04:08:09.710Z,5.27
2023-03-26T04:10:13.743Z,4.77
2023-03-26T04:12:06.061Z,5.00
2023-03-26T04:13:54.925Z,4.76
2023-03-26T04:15:48.923Z,4.64
2023-03-26T04:17:44.703Z,4.17
2023-03-26T04:19:19.301Z,4.45
2023-03-26T04:21:04.654Z,4.22
2023-03-26T04:22:47.019Z,3.58
2023-03-26T04:24:34.130Z,3.80
2023-03-26T04:26:31.835Z,4.09
2023-03-26T04:28:23.466Z,4.20
2023-03-26T04:30:19.953Z,4.76
2023-03-26T04:32:18.296Z,3.98
2023-03-26T04:34:05.974Z,3.61
2023-03-26T04:35:56.619Z,3.78
2023-03-26T04:37:40.771Z,3.72
2023-03-26T04:39:24.578Z,3.50
2023-03-26T04:41:19.400Z,3.77
2023-03-26T04:43:00.198Z,3.44
2023-03-26T04:44:58.763Z,3.22
2023-03-26T04:46:43.873Z,3.57
2023-03-26T04:48:22.920Z,3.67
2023-03-26T04:49:58.600Z,3.02
2023-03-26T04:51:46.641Z,3.27
2023-03-26T04:54:24.327Z,3.56
2023-03-26T04:55:54.626Z,3.57
2023-03-26T04:57:47.369Z,3.21
2023-03-26T04:59:38.952Z,3.30
2023-03-26T05:01:28.245Z,3.27
2023-03-26T05:03:02.053Z,3.12
2023-03-26T05:04:48.612Z,2.95
2023-03-26T05:06:36.725Z,2.73
2023-03-26T05:08:24.388Z,2.90
2023-03-26T05:10:09.532Z,2.90
2023-03-26T05:11:58.377Z,3.33
2023-03-26T05:13:47.440Z,3.87
2023-03-26T05:15:28.358Z,3.31
2023-03-26T05:16:53.313Z,3.54
2023-03-26T05:18:47.687Z,4.21
2023-03-26T05:20:35.914Z,3.83
2023-03-26T05:22:18.577Z,4.13
2023-03-26T05:24:12.629Z,4.51
2023-03-26T05:25:58.673Z,4.21
2023-03-26T05:27:39.756Z,4.76
2023-03-26T05:29:15.582Z,4.34
2023-03-26T05:31:12.854Z,4.33
2023-03-26T05:32:59.031Z,4.50
2023-03-26T05:34:35.605Z,4.60
2023-03-26T05:36:16.694Z,4.72
2023-03-26T05:37:53.308Z,4.81
2023-03-26T05:39:30.416Z,4.40
2023-03-26T05:41:22.597Z,4.91
2023-03-26T05:43:07.398Z,4.56
2023-03-26T05:44:54.340Z,4.51
2023-03-26T05:46:42.962Z,4.65
2023-03-26T05:48:18.420Z,4.09
2023-03-26T05:50:12.645Z,4.09
2023-03-26T05:52:08.032Z,4.27
2023-03-26T05:54:08.656Z,7.38
2023-03-26T05:56:10.530Z,4.43
2023-03-26T05:57:43.521Z,6.16
2023-03-26T06:00:02.487Z,5.64
2023-03-26T06:01:51.118Z,6.49
2023-03-26T06:03:46.183Z,36.04
2023-03-26T06:05:46.065Z,17.61
2023-03-26T06:07:13.036Z,9.94
2023-03-26T06:09:01.596Z,5.29
2023-03-26T06:10:44.909Z,6.30
2023-03-26T06:12:30.356Z,7.80
2023-03-26T06:14:11.333Z,4.40
2023-03-26T06:16:06.222Z,4.70
2023-03-26T06:17:54.056Z,5.07
2023-03-26T06:19:55.756Z,4.74
2023-03-26T06:21:57.817Z,4.17
2023-03-26T06:23:50.255Z,4.78
2023-03-26T06:25:31.085Z,4.44
2023-03-26T06:27:11.953Z,4.54
2023-03-26T06:29:03.943Z,4.27
2023-03-26T06:30:49.288Z,4.18
2023-03-26T06:32:51.536Z,3.76
2023-03-26T06:34:43.866Z,3.80
2023-03-26T06:36:29.157Z,3.52
2023-03-26T06:38:04.191Z,3.72
2023-03-26T06:39:57.680Z,4.17
2023-03-26T06:41:41.151Z,3.41
2023-03-26T06:43:18.645Z,3.79
2023-03-26T06:45:03.529Z,3.39
2023-03-26T06:46:55.808Z,3.76
2023-03-26T06:48:43.964Z,3.49
2023-03-26T06:50:46.940Z,3.79
2023-03-26T06:52:29.549Z,3.34
2023-03-26T06:54:25.140Z,3.36
2023-03-26T06:56:01.082Z,3.59
2023-03-26T06:57:53.541Z,3.31
2023-03-26T06:59:45.630Z,3.20
2023-03-26T07:01:26.021Z,3.24
2023-03-26T07:03:07.191Z,3.87
2023-03-26T07:05:01.273Z,2.98
2023-03-26T07:06:44.549Z,2.91
2023-03-26T07:08:45.793Z,3.32
2023-03-26T07:10:49.629Z,2.66
2023-03-26T07:12:41.948Z,2.64
2023-03-26T07:14:42.491Z,2.78
2023-03-26T07:16:31.013Z,3.06
2023-03-26T07:18:15.580Z,2.52
2023-03-26T07:20:01.784Z,2.22
2023-03-26T07:21:47.562Z,2.58
2023-03-26T07:23:45.099Z,1.97
2023-03-26T07:26:00.218Z,2.55
2023-03-26T07:27:54.637Z,2.47
2023-03-26T07:29:53.641Z,2.41
2023-03-26T07:31:46.430Z,2.66
2023-03-26T07:33:46.657Z,2.96
2023-03-26T07:35:50.492Z,2.77
2023-03-26T07:37:48.040Z,2.83
2023-03-26T07:41:15.913Z,2.73
2023-03-26T07:43:17.126Z,2.23
2023-03-26T07:45:49.507Z,2.47
2023-03-26T07:48:10.245Z,2.22
2023-03-26T07:50:05.534Z,1.94
2023-03-26T07:51:47.892Z,1.96
2023-03-26T07:53:28.862Z,2.02
2023-03-26T07:55:25.336Z,1.96
2023-03-26T07:57:33.398Z,2.03
2023-03-26T07:59:49.100Z,2.18
2023-03-26T08:01:38.821Z,2.97
2023-03-26T08:03:15.316Z,2.81
2023-03-26T08:06:00.224Z,2.57
2023-03-26T08:07:41.769Z,2.21
2023-03-26T08:09:23.222Z,2.16
2023-03-26T08:12:05.761Z,2.64
2023-03-26T08:13:39.248Z,3.06
2023-03-26T08:15:20.148Z,2.67
2023-03-26T08:16:42.257Z,2.46
2023-03-26T08:18:19.517Z,3.25
2023-03-26T08:20:08.284Z,2.63
2023-03-26T08:22:01.848Z,2.81
2023-03-26T08:23:23.781Z,2.65
2023-03-26T08:24:59.354Z,3.49
2023-03-26T08:26:29.528Z,2.67
2023-03-26T08:28:15.213Z,2.94
2023-03-26T08:29:51.021Z,3.55
2023-03-26T08:31:28.352Z,2.91
2023-03-26T08:33:02.390Z,3.10
2023-03-26T08:34:29.373Z,3.08
2023-03-26T08:36:14.557Z,3.06
2023-03-26T08:38:08.657Z,3.60
2023-03-26T08:39:42.637Z,3.94
2023-03-26T08:41:28.939Z,3.09
2023-03-26T08:43:13.822Z,3.13
2023-03-26T08:44:50.621Z,3.56
2023-03-26T08:46:23.633Z,4.22
2023-03-26T08:48:18.638Z,4.08
2023-03-26T08:50:06.687Z,3.84
2023-03-26T08:51:40.586Z,3.38
2023-03-26T08:53:14.539Z,3.52
2023-03-26T08:55:02.879Z,3.09
2023-03-26T08:56:38.857Z,3.97
2023-03-26T08:58:24.343Z,5.01
2023-03-26T09:00:09.653Z,4.36
2023-03-26T09:02:04.934Z,5.03
2023-03-26T09:03:47.365Z,4.73
2023-03-26T09:05:32.913Z,3.53
2023-03-26T09:07:18.669Z,3.83
2023-03-26T09:09:04.645Z,4.32
2023-03-26T09:10:47.703Z,3.54
2023-03-26T09:12:19.102Z,3.11
2023-03-26T09:14:07.445Z,3.95
2023-03-26T09:15:43.284Z,3.95
2023-03-26T09:17:12.804Z,5.23
2023-03-26T09:18:46.288Z,5.20
2023-03-26T09:20:08.890Z,4.75
2023-03-26T09:21:55.635Z,4.68
2023-03-26T09:23:17.244Z,4.26
2023-03-26T09:24:52.855Z,3.36
2023-03-26T09:26:39.865Z,4.12
2023-03-26T09:28:24.840Z,3.86
2023-03-26T09:29:58.605Z,4.41
2023-03-26T09:31:45.820Z,4.23
2023-03-26T09:33:19.732Z,4.13
2023-03-26T09:35:04.727Z,4.84
2023-03-26T09:36:58.659Z,3.49
2023-03-26T09:38:39.180Z,4.50
2023-03-26T09:40:20.157Z,3.47
2023-03-26T09:42:12.901Z,4.01
2023-03-26T09:43:57.958Z,5.15
2023-03-26T09:45:43.607Z,5.57
2023-03-26T09:47:11.117Z,5.45
2023-03-26T09:48:44.601Z,5.17
2023-03-26T09:50:29.941Z,4.83
2023-03-26T09:52:15.094Z,4.29
2023-03-26T09:53:50.449Z,3.37
2023-03-26T09:55:20.105Z,2.61
2023-03-26T09:57:12.696Z,2.97
2023-03-26T09:58:48.281Z,2.38
2023-03-26T10:00:21.655Z,5.32
2023-03-26T10:01:57.785Z,4.63
2023-03-26T10:03:34.215Z,4.28
2023-03-26T10:05:08.164Z,3.19
2023-03-26T10:06:44.431Z,4.56
2023-03-26T10:08:31.554Z,6.01
2023-03-26T10:10:17.440Z,4.83
2023-03-26T10:11:53.716Z,4.11
2023-03-26T10:13:39.676Z,3.03
2023-03-26T10:15:32.643Z,3.16
2023-03-26T10:17:15.668Z,3.24
2023-03-26T10:18:56.290Z,3.89
2023-03-26T10:20:30.368Z,4.23
2023-03-26T10:22:15.539Z,5.29
2023-03-26T10:24:00.593Z,4.01
2023-03-26T10:25:37.273Z,3.85
2023-03-26T10:27:19.147Z,3.73
2023-03-26T10:29:04.491Z,3.83
2023-03-26T10:30:59.672Z,3.81
2023-03-26T10:32:35.781Z,3.77
2023-03-26T10:34:28.784Z,4.33
2023-03-26T10:36:15.165Z,4.27
2023-03-26T10:37:48.507Z,3.99
2023-03-26T10:39:36.347Z,3.62
2023-03-26T10:41:18.321Z,3.88
2023-03-26T10:43:04.832Z,3.57
2023-03-26T10:44:54.920Z,4.06
2023-03-26T10:46:28.423Z,3.61
2023-03-26T10:48:13.971Z,3.56
2023-03-26T10:49:49.858Z,3.11
2023-03-26T10:51:12.968Z,3.41
2023-03-26T10:52:58.237Z,3.29
2023-03-26T10:54:31.761Z,4.23
2023-03-26T10:56:16.773Z,4.36
2023-03-26T10:57:50.232Z,4.46
2023-03-26T10:59:44.766Z,3.46
2023-03-26T11:01:34.919Z,3.82
2023-03-26T11:03:20.342Z,3.62
2023-03-26T11:05:14.703Z,3.34
2023-03-26T11:07:08.846Z,3.38
2023-03-26T11:08:44.775Z,3.62
2023-03-26T11:10:18.535Z,2.85
2023-03-26T11:12:03.889Z,3.31
2023-03-26T11:14:09.391Z,3.07
2023-03-26T11:15:38.515Z,3.66
2023-03-26T11:17:39.495Z,3.69
2023-03-26T11:19:12.562Z,4.90
2023-03-26T11:21:18.874Z,4.83
2023-03-26T11:23:15.659Z,3.90
2023-03-26T11:25:00.673Z,4.09
2023-03-26T11:26:41.194Z,3.57
2023-03-26T11:28:21.474Z,3.50
2023-03-26T11:30:06.788Z,4.47
2023-03-26T11:31:43.977Z,4.34
2023-03-26T11:33:17.965Z,4.73
2023-03-26T11:34:52.119Z,3.62
2023-03-26T11:36:45.191Z,4.28
2023-03-26T11:38:38.616Z,4.30
2023-03-26T11:40:21.204Z,3.81
2023-03-26T11:41:43.021Z,3.49
2023-03-26T11:43:44.881Z,3.60
2023-03-26T11:45:30.782Z,3.54
2023-03-26T11:47:14.473Z,3.89
2023-03-26T11:49:07.903Z,3.70
2023-03-26T11:50:41.035Z,2.91
2023-03-26T11:52:30.065Z,2.58
2023-03-26T11:54:15.344Z,2.69
2023-03-26T11:55:51.166Z,3.40
2023-03-26T11:57:44.380Z,2.64
2023-03-26T11:59:19.350Z,2.84
2023-03-26T12:01:06.228Z,3.40
2023-03-26T12:02:39.980Z,2.93
2023-03-26T12:04:13.624Z,2.66
2023-03-26T12:05:49.657Z,3.32
2023-03-26T12:07:35.844Z,3.78
2023-03-26T12:08:59.909Z,3.61
2023-03-26T12:10:45.439Z,3.49
2023-03-26T12:12:12.038Z,3.34
2023-03-26T12:13:36.484Z,3.21
2023-03-26T12:15:21.261Z,3.55
2023-03-26T12:17:06.280Z,3.04
2023-03-26T12:18:59.655Z,3.50
2023-03-26T12:20:32.849Z,3.23
2023-03-26T12:22:19.555Z,3.39
2023-03-26T12:24:05.594Z,3.33
2023-03-26T12:26:02.479Z,4.00
2023-03-26T12:27:52.786Z,3.92
2023-03-26T12:29:15.699Z,3.72
2023-03-26T12:31:03.839Z,3.59
2023-03-26T12:32:46.946Z,3.58
2023-03-26T12:34:32.394Z,2.61
2023-03-26T12:36:17.483Z,3.71
2023-03-26T12:37:59.365Z,3.75
2023-03-26T12:40:08.890Z,3.81
2023-03-26T12:42:52.740Z,3.41
2023-03-26T12:44:48.005Z,2.88
2023-03-26T12:45:31.601Z,3.15
2023-03-26T12:47:56.314Z,3.28
2023-03-26T12:49:11.466Z,2.73
2023-03-26T12:50:58.664Z,2.81
2023-03-26T12:52:45.221Z,2.14
2023-03-26T12:54:39.647Z,2.62
2023-03-26T12:56:25.036Z,2.80
2023-03-26T12:58:01.381Z,2.46
2023-03-26T12:59:53.486Z,2.80
2023-03-26T13:01:34.306Z,2.44
2023-03-26T13:03:19.768Z,2.38
2023-03-26T13:05:13.081Z,2.55
2023-03-26T13:07:02.148Z,3.22
2023-03-26T13:08:44.489Z,3.55
2023-03-26T13:10:17.929Z,4.18
2023-03-26T13:12:02.659Z,3.80
2023-03-26T13:13:36.429Z,3.66
2023-03-26T13:15:12.303Z,3.78
2023-03-26T13:16:53.205Z,3.68
2023-03-26T13:18:38.576Z,3.81
2023-03-26T13:20:23.954Z,4.26
2023-03-26T13:21:57.887Z,3.15
2023-03-26T13:23:43.814Z,3.60
2023-03-26T13:25:28.654Z,3.35
2023-03-26T13:26:50.798Z,3.66
2023-03-26T13:28:31.378Z,3.27
2023-03-26T13:30:12.533Z,3.71
2023-03-26T13:31:58.677Z,3.39
2023-03-26T13:33:44.623Z,3.55
2023-03-26T13:35:20.593Z,3.85
2023-03-26T13:37:15.707Z,3.64
2023-03-26T13:39:08.994Z,3.75
2023-03-26T13:40:53.984Z,3.94
2023-03-26T13:42:39.357Z,3.93
2023-03-26T13:44:24.779Z,3.96
2023-03-26T13:46:18.730Z,4.27
2023-03-26T13:48:11.323Z,4.50
2023-03-26T13:49:56.393Z,3.75
2023-03-26T13:51:29.308Z,4.09
2023-03-26T13:53:13.277Z,5.25
2023-03-26T13:55:06.498Z,5.10
2023-03-26T13:57:00.240Z,5.36
2023-03-26T13:58:34.295Z,4.12
2023-03-26T14:00:21.615Z,3.60
2023-03-26T14:01:55.550Z,4.15
2023-03-26T14:03:24.583Z,4.36
2023-03-26T14:05:09.908Z,4.96
2023-03-26T14:06:40.666Z,5.46
2023-03-26T14:08:21.704Z,5.01
2023-03-26T14:10:12.675Z,4.94
2023-03-26T14:11:57.590Z,5.23
2023-03-26T14:13:24.332Z,5.21
2023-03-26T14:15:09.560Z,4.47
2023-03-26T14:17:04.687Z,4.59
2023-03-26T14:18:40.344Z,4.92
2023-03-26T14:20:25.530Z,4.99
2023-03-26T14:22:01.325Z,7.50
2023-03-26T14:23:46.518Z,7.01
2023-03-26T14:25:20.155Z,5.62
2023-03-26T14:27:05.685Z,5.12
2023-03-26T14:28:42.906Z,4.91
2023-03-26T14:30:31.188Z,4.20
2023-03-26T14:32:13.429Z,4.65
2023-03-26T14:33:44.755Z,4.38
2023-03-26T14:35:29.185Z,4.13
2023-03-26T14:36:53.097Z,4.44
2023-03-26T14:38:41.951Z,4.23
2023-03-26T14:40:08.151Z,3.60
2023-03-26T14:41:41.606Z,3.84
2023-03-26T14:43:17.198Z,3.59
2023-03-26T14:45:05.497Z,4.20
2023-03-26T14:46:59.780Z,4.32
2023-03-26T14:48:32.825Z,4.81
2023-03-26T14:50:16.087Z,4.28
2023-03-26T14:51:42.621Z,4.28
2023-03-26T14:53:06.779Z,3.89
2023-03-26T14:54:59.744Z,5.44
2023-03-26T14:56:24.333Z,5.14
2023-03-26T14:57:53.497Z,4.37
2023-03-26T14:59:38.690Z,4.81
2023-03-26T15:01:14.745Z,4.46
2023-03-26T15:03:00.396Z,4.56
2023-03-26T15:04:47.269Z,4.68
2023-03-26T15:06:14.197Z,3.91
2023-03-26T15:07:38.348Z,4.00
2023-03-26T15:09:11.497Z,3.93
2023-03-26T15:10:46.946Z,4.31
2023-03-26T15:12:13.043Z,3.92
2023-03-26T15:13:46.878Z,4.31
2023-03-26T15:15:20.371Z,3.90
2023-03-26T15:17:01.169Z,4.41
2023-03-26T15:18:45.725Z,4.42
2023-03-26T15:20:25.937Z,4.70
2023-03-26T15:22:07.452Z,5.07
2023-03-26T15:23:41.133Z,4.44
2023-03-26T15:25:14.168Z,5.46
2023-03-26T15:27:07.757Z,4.34
2023-03-26T15:28:48.565Z,4.25
2023-03-26T15:30:42.076Z,4.80
2023-03-26T15:32:18.116Z,4.56
2023-03-26T15:34:08.776Z,4.55
2023-03-26T15:36:01.903Z,4.86
2023-03-26T15:37:51.256Z,4.53
2023-03-26T15:39:59.459Z,4.53
2023-03-26T15:41:43.704Z,6.74
2023-03-26T15:43:28.880Z,3.55
2023-03-26T15:45:00.668Z,3.93
2023-03-26T15:46:35.856Z,5.42
2023-03-26T15:48:17.668Z,6.02
2023-03-26T15:49:53.654Z,4.32
2023-03-26T15:51:22.482Z,4.61
2023-03-26T15:52:55.966Z,5.08
2023-03-26T15:54:36.442Z,3.78
2023-03-26T15:56:00.547Z,4.50
2023-03-26T15:57:22.365Z,4.38
2023-03-26T15:59:04.733Z,4.11
2023-03-26T16:00:49.721Z,3.97
2023-03-26T16:02:23.719Z,4.42
2023-03-26T16:03:49.998Z,4.03
2023-03-26T16:05:16.346Z,4.64
2023-03-26T16:06:50.400Z,5.46
2023-03-26T16:08:39.840Z,6.48
2023-03-26T16:10:14.054Z,10.53
2023-03-26T16:11:57.845Z,24.48
2023-03-26T16:13:31.348Z,37.03
2023-03-26T16:14:53.760Z,19.68
2023-03-26T16:16:28.135Z,15.43
2023-03-26T16:18:06.404Z,21.73
2023-03-26T16:19:28.011Z,31.84
2023-03-26T16:21:03.371Z,17.00
2023-03-26T16:22:56.435Z,17.37
2023-03-26T16:24:20.570Z,11.70
2023-03-26T16:25:51.657Z,9.16
2023-03-26T16:27:27.720Z,7.21
2023-03-26T16:29:02.305Z,5.68
2023-03-26T16:30:55.987Z,5.23
2023-03-26T16:32:20.377Z,5.18
2023-03-26T16:33:53.649Z,5.09
2023-03-26T16:35:27.364Z,6.78
2023-03-26T16:37:12.481Z,5.45
2023-03-26T16:38:36.636Z,6.37
2023-03-26T16:40:13.587Z,5.31
2023-03-26T16:41:56.321Z,5.94
2023-03-26T16:43:35.549Z,6.31
2023-03-26T16:45:20.878Z,6.05
2023-03-26T16:47:14.706Z,5.87
2023-03-26T16:48:48.080Z,7.26
2023-03-26T16:50:28.980Z,7.16
2023-03-26T16:51:56.404Z,7.14
2023-03-26T16:53:49.611Z,8.33
2023-03-26T16:55:43.674Z,6.78
2023-03-26T16:57:24.549Z,7.65
2023-03-26T16:59:17.920Z,6.15
2023-03-26T17:01:04.044Z,5.77
2023-03-26T17:02:53.721Z,5.66
2023-03-26T17:04:27.346Z,6.59
2023-03-26T17:06:13.950Z,6.00
2023-03-26T17:07:47.181Z,5.14
2023-03-26T17:09:32.089Z,7.10
2023-03-26T17:11:15.782Z,9.88
2023-03-26T17:12:49.253Z,5.79
2023-03-26T17:14:13.996Z,6.20
2023-03-26T17:15:37.784Z,6.78
2023-03-26T17:17:01.941Z,8.65
2023-03-26T17:18:26.621Z,12.00
2023-03-26T17:20:00.716Z,11.48
2023-03-26T17:21:45.529Z,14.56
2023-03-26T17:23:31.779Z,14.10
2023-03-26T17:25:10.376Z,14.53
2023-03-26T17:27:11.714Z,14.55
2023-03-26T17:28:45.006Z,25.93
2023-03-26T17:30:30.679Z,13.81
2023-03-26T17:32:12.739Z,16.07
2023-03-26T17:33:57.671Z,14.04
2023-03-26T17:35:43.216Z,15.95
2023-03-26T17:37:16.456Z,19.92
2023-03-26T17:38:49.513Z,24.02
2023-03-26T17:40:43.731Z,24.95
2023-03-26T17:42:16.978Z,28.10
2023-03-26T17:44:02.032Z,40.79
2023-03-26T17:45:37.724Z,53.64
2023-03-26T17:47:06.956Z,45.97
2023-03-26T17:49:00.335Z,37.31
2023-03-26T17:50:42.508Z,24.87
2023-03-26T17:52:18.024Z,31.49
2023-03-26T17:54:07.718Z,25.95
2023-03-26T17:55:36.940Z,29.06
2023-03-26T17:57:22.745Z,32.18
2023-03-26T17:59:11.220Z,32.47
2023-03-26T18:01:05.515Z,33.38
2023-03-26T18:02:43.662Z,27.19
2023-03-26T18:04:19.631Z,31.55
2023-03-26T18:05:55.574Z,28.86
2023-03-26T18:07:31.915Z,31.80
2023-03-26T18:09:16.589Z,30.57
2023-03-26T18:13:17.777Z,33.50
2023-03-26T18:17:11.912Z,32.97
2023-03-26T18:18:58.579Z,31.44
2023-03-26T18:20:45.826Z,62.07
2023-03-26T18:22:40.732Z,38.20
2023-03-26T18:24:05.266Z,39.56
2023-03-26T18:25:40.904Z,38.82
2023-03-26T18:27:17.227Z,41.07
2023-03-26T18:29:10.833Z,45.38
2023-03-26T18:30:55.016Z,23.97
2023-03-26T18:32:31.087Z,36.87
2023-03-26T18:34:05.054Z,35.67
2023-03-26T18:35:59.751Z,39.03
2023-03-26T18:37:48.269Z,40.73
2023-03-26T18:39:35.535Z,36.75
2023-03-26T18:41:12.173Z,31.68
2023-03-26T18:42:54.714Z,30.98
2023-03-26T18:44:19.179Z,28.69
2023-03-26T18:46:04.461Z,29.70
2023-03-26T18:47:38.093Z,29.35
2023-03-26T18:49:14.025Z,40.21
2023-03-26T18:51:08.422Z,67.29
2023-03-26T18:52:49.098Z,49.87
2023-03-26T18:54:25.323Z,62.22
2023-03-26T18:55:59.000Z,97.55
2023-03-26T18:57:35.036Z,116.18
2023-03-26T18:58:57.710Z,106.22
2023-03-26T19:00:20.610Z,103.33
2023-03-26T19:02:14.676Z,107.43
2023-03-26T19:03:36.709Z,110.89
2023-03-26T19:04:58.774Z,103.75
2023-03-26T19:06:35.926Z,98.64
2023-03-26T19:08:01.011Z,82.75
2023-03-26T19:09:32.074Z,73.81
2023-03-26T19:11:17.835Z,67.11
2023-03-26T19:12:53.781Z,62.41
2023-03-26T19:14:35.914Z,53.11
2023-03-26T19:16:12.076Z,77.47
2023-03-26T19:17:57.183Z,45.92
2023-03-26T19:19:31.981Z,54.78
2023-03-26T19:21:05.784Z,115.91
2023-03-26T19:22:46.674Z,164.14
2023-03-26T19:24:09.418Z,159.09
2023-03-26T19:25:50.683Z,91.61
2023-03-26T19:27:24.332Z,70.13
2023-03-26T19:28:56.024Z,67.01
2023-03-26T19:30:29.395Z,62.56
2023-03-26T19:31:51.860Z,59.34
2023-03-26T19:33:24.978Z,55.84
2023-03-26T19:35:15.440Z,55.40
2023-03-26T19:36:57.739Z,58.30
2023-03-26T19:38:34.446Z,57.74
2023-03-26T19:39:58.553Z,55.85
2023-03-26T19:41:31.835Z,51.55
2023-03-26T19:43:04.528Z,69.48
2023-03-26T19:44:46.333Z,58.32
2023-03-26T19:46:19.797Z,63.94
2023-03-26T19:48:04.071Z,54.89
2023-03-26T19:49:45.073Z,94.01
2023-03-26T19:51:19.923Z,78.82
2023-03-26T19:53:14.677Z,73.01
2023-03-26T19:54:39.012Z,74.82
2023-03-26T19:56:33.769Z,69.05
2023-03-26T19:57:56.026Z,60.83
2023-03-26T19:59:28.909Z,61.04
2023-03-26T20:00:53.106Z,51.68
2023-03-26T20:02:26.375Z,46.40
2023-03-26T20:03:48.542Z,54.39
2023-03-26T20:05:34.726Z,55.90
2023-03-26T20:07:19.961Z,79.84
2023-03-26T20:08:50.458Z,58.06
2023-03-26T20:10:14.739Z,34.31
2023-03-26T20:11:39.605Z,26.28
2023-03-26T20:13:09.609Z,29.00
2023-03-26T20:14:45.086Z,42.25
2023-03-26T20:16:17.256Z,46.22
2023-03-26T20:18:11.187Z,51.69
2023-03-26T20:19:44.323Z,65.11
2023-03-26T20:21:16.319Z,61.90
2023-03-26T20:22:40.474Z,56.32
2023-03-26T20:24:26.283Z,46.45
2023-03-26T20:25:53.031Z,48.07
2023-03-26T20:27:26.794Z,45.63
2023-03-26T20:28:52.877Z,45.28
2023-03-26T20:32:18.333Z,55.53
2023-03-26T20:33:54.168Z,54.49
2023-03-26T20:35:36.252Z,47.24
2023-03-26T20:37:01.255Z,47.59
2023-03-26T20:38:39.400Z,47.59
2023-03-26T20:40:16.567Z,45.19
2023-03-26T20:41:50.152Z,45.64
2023-03-26T20:43:15.974Z,45.82
2023-03-26T20:44:38.238Z,36.32
2023-03-26T20:46:23.949Z,43.79
2023-03-26T20:48:04.996Z,42.07
2023-03-26T20:49:41.120Z,57.85
2023-03-26T20:51:22.276Z,55.69
2023-03-26T20:53:06.726Z,42.01
2023-03-26T20:54:36.146Z,49.15
2023-03-26T20:56:11.693Z,33.08
2023-03-26T20:57:56.722Z,34.28
2023-03-26T20:59:28.024Z,41.76
2023-03-26T21:00:51.805Z,55.90
2023-03-26T21:02:16.412Z,59.12
2023-03-26T21:03:38.785Z,49.72
2023-03-26T21:05:14.588Z,53.12
2023-03-26T21:06:48.125Z,47.30
2023-03-26T21:08:33.686Z,56.95
2023-03-26T21:09:57.972Z,57.71
2023-03-26T21:11:31.492Z,50.42
2023-03-26T21:13:00.675Z,50.07
2023-03-26T21:14:30.493Z,49.52
2023-03-26T21:15:52.583Z,45.76
2023-03-26T21:17:27.112Z,41.80
2023-03-26T21:19:00.977Z,43.54
2023-03-26T21:20:36.983Z,50.44
2023-03-26T21:21:59.145Z,42.90
2023-03-26T21:23:25.858Z,38.83
2023-03-26T21:24:59.325Z,35.63
2023-03-26T21:26:33.973Z,33.37
2023-03-26T21:28:28.854Z,36.58
2023-03-26T21:29:58.179Z,39.60
2023-03-26T21:31:31.561Z,38.63
2023-03-26T21:33:05.481Z,40.22
2023-03-26T21:34:47.802Z,43.96
2023-03-26T21:36:24.845Z,56.71
2023-03-26T21:37:58.864Z,59.58
2023-03-26T21:39:34.956Z,61.59
2023-03-26T21:41:08.824Z,64.17
2023-03-26T21:42:33.238Z,62.07
2023-03-26T21:43:55.382Z,65.36
2023-03-26T21:45:25.003Z,82.36
2023-03-26T21:47:18.538Z,58.33
2023-03-26T21:48:48.091Z,65.98
2023-03-26T21:50:24.296Z,59.27
2023-03-26T21:51:57.759Z,69.43
2023-03-26T21:53:21.973Z,54.44
2023-03-26T21:55:09.670Z,65.57
2023-03-26T21:56:50.808Z,55.21
2023-03-26T21:58:15.281Z,44.45
2023-03-26T21:59:48.520Z,41.74
2023-03-26T22:01:13.505Z,39.47
2023-03-26T22:02:47.013Z,38.93
2023-03-26T22:04:16.476Z,40.84
2023-03-26T22:05:52.408Z,49.64
2023-03-26T22:07:28.667Z,41.29
2023-03-26T22:09:09.875Z,40.53
2023-03-26T22:10:50.594Z,42.87
2023-03-26T22:12:25.576Z,40.81
2023-03-26T22:14:07.649Z,38.81
2023-03-26T22:15:31.274Z,36.09
2023-03-26T22:16:54.960Z,36.10
2023-03-26T22:18:25.775Z,37.25
2023-03-26T22:20:01.639Z,35.58
2023-03-26T22:21:35.411Z,36.10
2023-03-26T22:23:09.334Z,35.91
2023-03-26T22:24:53.278Z,35.09
2023-03-26T22:26:18.023Z,33.43
2023-03-26T22:27:47.544Z,33.96
2023-03-26T22:29:19.320Z,38.48
2023-03-26T22:31:09.833Z,39.66